Belvidere, Nebraska
Current Conditions -  °F | °C
As of 1:15 AM on Friday 28 Nov 2014 (Local Time) from KHJH Reporting Station
Clear Clear  
Wind Chill: 25°   Ceiling: Unl
Heat Index: 32°   Visibility: 10mi
Dew Point: 18°   Wind: 7mph
Humidity: 57%   Direction: 170°S
Pressure: 30.01"   Gusts: NA
Location:  40.25°N, 97.56°W
Report Text: KHJH 280715Z AUTO 17006KT 10SM CLR 00/M08 A3001 RMK AO2 T10021078
Loading
Personal Weather Stations






























Interactive Weather Map New forecast layout! Learn more

10-Day Weather Forecast

Advertisements
Track Severe Weather on mobile